メインページ
METAR-TAF:

METAR-TAF

空港 :

カイエンヌ, フランス領ギアナ

カイエンヌ・フェリックス・エブエ国際空港

緯度: 04-50N, 経度: 052-22W, 海抜: 105m

現時点の気象観測

当レポートは11分前の00:30(UTC)に作成
の風 4kt
気温 26°C
湿度 89%
気圧 1010 hPa
視程10km以上
1,500メートル以下は雲なし、積乱雲なし

METAR: SOCA 120030Z AUTO 09004KT CAVOK 26/24 Q1010 TEMPO 4000 SHRA SCT015TCU

時間: 21:41 (00:41 UTC)

予報

当レポートは1時間41分前の23:00(UTC)に作成
予報は12日の 00時(UTC)から 12日の 24時(UTC)まで有効
変向風 2kt
視程10km以上
高度2000ftの雲は散在している
確率 40% :
12日の 00時(UTC)から 12日の 12時(UTC)まで一時的に
視程: 4000m
高度1500ftの雲は散在している, 塔状積雲.
にわか雨
12日の 1200時(UTC)から
の風 12kt
視程10km以上
高度2600ftの千切れ雲あり
12日の 12時(UTC)から 12日の 24時(UTC)まで一時的に
視程: 3000m
高度1500ftの千切れ雲あり, 塔状積雲.
にわか雨

TAF: SOCA 112300Z 1200/1224 VRB02KT 9999 SCT020 PROB40 TEMPO 1200/1212 4000 SHRA SCT015TCU FM121200 09012KT 9999 BKN026 TEMPO 1212/1224 3000 SHRA BKN015TCU

4,000以上の空港の気象観測と天気予報(METAR報とTAF報)

利用可能な観測所は地図上に黄色い丸と赤い丸で示す。

丸の上にカーソルを重ねると観測所名を参照できる。

次にクリックすると気象観測と天気予報を参照できる。

マップの切り替え:黒色「×」印の緑ボタンをクリックして拡大、「-」印の緑ボタンをクリックして縮小、緑色の三角印をクリックして隣りの地図に切り替え


METAR-TAF: